Time;durP1;ratioP1;P1;durP2;ratioP2;P2;SDS_P1;SDS_P2;PMS_P1;PMS_P2;Temp;Humidity;BMP_temperature;BMP_pressure;BME280_temperature;BME280_humidity;BME280_pressure;Samples;Min_cycle;Max_cycle;Signal;HPM_P1;HPM_P2
2023/04/17 00:01:54;;;;;;;6.20;4.50;;;;;;;;;;107674;276;48515;-29
2023/04/17 00:04:29;;;;;;;5.90;4.30;;;;;;;;;;107713;283;43298;-29
2023/04/17 00:07:06;;;;;;;5.70;4.20;;;;;;;;;;107711;284;38804;-29
2023/04/17 00:09:40;;;;;;;5.70;4.10;;;;;;;;;;107723;284;41006;-29
2023/04/17 00:12:14;;;;;;;5.60;4.30;;;;;;;;;;107556;276;175364;-29
2023/04/17 00:14:48;;;;;;;5.30;4.00;;;;;;;;;;107724;276;43272;-30
2023/04/17 00:17:22;;;;;;;5.70;4.40;;;;;;;;;;107708;284;38773;-30
2023/04/17 00:19:55;;;;;;;5.90;4.30;;;;;;;;;;107687;281;40560;-30
2023/04/17 00:22:29;;;;;;;6.00;4.20;;;;;;;;;;107644;284;49741;-30
2023/04/17 00:25:03;;;;;;;6.30;4.40;;;;;;;;;;107650;284;42488;-30
2023/04/17 00:27:37;;;;;;;6.20;4.40;;;;;;;;;;107650;276;38933;-30
2023/04/17 00:30:12;;;;;;;5.70;4.20;;;;;;;;;;107655;284;39645;-30
2023/04/17 00:32:46;;;;;;;5.40;4.20;;;;;;;;;;107743;285;48853;-30
2023/04/17 00:35:20;;;;;;;5.90;4.30;;;;;;;;;;107624;284;42232;-30
2023/04/17 00:37:56;;;;;;;5.80;4.30;;;;;;;;;;107532;284;192087;-30
2023/04/17 00:40:31;;;;;;;6.00;4.30;;;;;;;;;;107677;284;40112;-30
2023/04/17 00:43:06;;;;;;;5.70;4.20;;;;;;;;;;107627;284;49873;-30
2023/04/17 00:45:40;;;;;;;5.80;4.30;;;;;;;;;;107667;276;42275;-30
2023/04/17 00:48:16;;;;;;;5.70;4.30;;;;;;;;;;107665;281;38587;-30
2023/04/17 00:50:50;;;;;;;5.60;4.30;;;;;;;;;;107666;276;41984;-30
2023/04/17 00:53:24;;;;;;;5.70;4.00;;;;;;;;;;107642;283;49847;-30
2023/04/17 00:55:59;;;;;;;5.70;4.30;;;;;;;;;;107665;276;43130;-30
2023/04/17 00:58:35;;;;;;;5.90;4.40;;;;;;;;;;107664;281;39062;-30
2023/04/17 01:01:09;;;;;;;5.40;4.20;;;;;;;;;;107643;284;39791;-30
2023/04/17 01:03:46;;;;;;;5.40;4.20;;;;;;;;;;107635;284;175704;-30
2023/04/17 01:06:26;;;;;;;5.80;4.20;;;;;;;;;;107628;276;42326;-30
2023/04/17 01:09:00;;;;;;;5.80;4.10;;;;;;;;;;107651;285;38895;-30
2023/04/17 01:11:35;;;;;;;5.30;4.10;;;;;;;;;;107635;276;41118;-30
2023/04/17 01:14:09;;;;;;;5.80;4.00;;;;;;;;;;107644;281;50121;-30
2023/04/17 01:16:43;;;;;;;5.60;3.80;;;;;;;;;;107674;276;42222;-30
2023/04/17 01:19:18;;;;;;;5.20;4.10;;;;;;;;;;107665;284;39981;-30
2023/04/17 01:21:54;;;;;;;5.50;3.90;;;;;;;;;;107632;281;40869;-30
2023/04/17 01:24:28;;;;;;;5.70;4.20;;;;;;;;;;107639;276;50571;-30
2023/04/17 01:27:04;;;;;;;5.80;4.20;;;;;;;;;;107654;284;43140;-30
2023/04/17 01:29:40;;;;;;;5.70;4.10;;;;;;;;;;107640;284;39365;-30
2023/04/17 01:32:15;;;;;;;5.30;3.90;;;;;;;;;;107643;284;40889;-30
2023/04/17 01:34:49;;;;;;;5.40;3.80;;;;;;;;;;107634;276;49530;-30
2023/04/17 01:37:22;;;;;;;5.80;4.10;;;;;;;;;;107664;284;41883;-30
2023/04/17 01:39:57;;;;;;;5.50;4.10;;;;;;;;;;107405;286;332803;-30
2023/04/17 01:42:32;;;;;;;5.70;4.00;;;;;;;;;;107629;281;39719;-30
2023/04/17 01:45:11;;;;;;;5.90;4.30;;;;;;;;;;107615;284;49338;-30
2023/04/17 01:47:44;;;;;;;5.70;4.10;;;;;;;;;;107673;284;42503;-30
2023/04/17 01:50:20;;;;;;;5.70;4.10;;;;;;;;;;107665;284;38916;-30
2023/04/17 01:52:53;;;;;;;5.20;4.10;;;;;;;;;;107609;284;39810;-30
2023/04/17 01:55:29;;;;;;;5.50;3.90;;;;;;;;;;107677;276;50307;-30
2023/04/17 01:58:04;;;;;;;5.60;4.30;;;;;;;;;;107669;284;44380;-30
2023/04/17 02:00:39;;;;;;;5.40;4.00;;;;;;;;;;107675;284;38826;-30
2023/04/17 02:03:13;;;;;;;5.50;4.10;;;;;;;;;;107628;284;40013;-30
2023/04/17 02:05:49;;;;;;;5.20;3.90;;;;;;;;;;107653;284;49392;-30
2023/04/17 02:08:23;;;;;;;5.60;4.00;;;;;;;;;;107702;276;42160;-30
2023/04/17 02:10:57;;;;;;;6.00;4.20;;;;;;;;;;107679;281;39394;-30
2023/04/17 02:13:31;;;;;;;5.40;4.00;;;;;;;;;;107643;276;39849;-30
2023/04/17 02:16:08;;;;;;;5.30;4.00;;;;;;;;;;107655;281;49235;-30
2023/04/17 02:18:43;;;;;;;5.40;4.00;;;;;;;;;;107704;276;42157;-30
2023/04/17 02:21:17;;;;;;;5.70;4.10;;;;;;;;;;107648;276;39063;-30
2023/04/17 02:23:51;;;;;;;5.40;4.20;;;;;;;;;;107669;284;39787;-30
2023/04/17 02:26:25;;;;;;;5.70;4.20;;;;;;;;;;107656;281;49394;-30
2023/04/17 02:29:01;;;;;;;5.40;4.10;;;;;;;;;;107666;284;42478;-30
2023/04/17 02:31:36;;;;;;;5.70;4.10;;;;;;;;;;107660;284;38573;-30
2023/04/17 02:34:10;;;;;;;5.20;3.80;;;;;;;;;;107637;284;39762;-30
2023/04/17 02:36:44;;;;;;;5.80;4.10;;;;;;;;;;107684;281;51577;-30
2023/04/17 02:39:18;;;;;;;5.80;4.20;;;;;;;;;;107671;284;43310;-30
2023/04/17 02:41:51;;;;;;;5.60;4.20;;;;;;;;;;107709;276;38820;-30
2023/04/17 02:44:25;;;;;;;5.80;4.40;;;;;;;;;;107658;276;39678;-29
2023/04/17 02:46:59;;;;;;;5.80;4.50;;;;;;;;;;107658;284;50452;-29
2023/04/17 02:49:35;;;;;;;5.60;4.40;;;;;;;;;;107700;284;44517;-29
2023/04/17 02:52:09;;;;;;;5.50;4.20;;;;;;;;;;107673;281;39860;-30
2023/04/17 02:54:45;;;;;;;5.20;3.90;;;;;;;;;;107542;276;175682;-30
2023/04/17 02:57:18;;;;;;;5.10;4.10;;;;;;;;;;107671;284;49253;-30
2023/04/17 02:59:54;;;;;;;5.50;4.10;;;;;;;;;;107678;284;42144;-30
2023/04/17 03:02:30;;;;;;;5.50;4.20;;;;;;;;;;107636;284;39085;-29
2023/04/17 03:05:08;;;;;;;5.50;4.10;;;;;;;;;;107641;284;39511;-29
2023/04/17 03:07:41;;;;;;;5.70;4.10;;;;;;;;;;107520;276;175370;-29
2023/04/17 03:10:15;;;;;;;5.00;4.00;;;;;;;;;;107674;284;42260;-29
2023/04/17 03:12:49;;;;;;;5.70;4.10;;;;;;;;;;107706;276;40978;-29
2023/04/17 03:15:23;;;;;;;5.60;4.10;;;;;;;;;;107633;281;39743;-29
2023/04/17 03:17:57;;;;;;;5.90;4.30;;;;;;;;;;107676;276;48876;-29
2023/04/17 03:20:31;;;;;;;5.60;4.20;;;;;;;;;;107645;276;41923;-29
2023/04/17 03:23:04;;;;;;;6.20;4.50;;;;;;;;;;107644;281;38808;-29
2023/04/17 03:25:38;;;;;;;5.60;4.40;;;;;;;;;;107633;284;39689;-30
2023/04/17 03:28:12;;;;;;;6.00;4.40;;;;;;;;;;107656;281;51410;-30
2023/04/17 03:30:46;;;;;;;6.30;4.10;;;;;;;;;;107643;284;42150;-30
2023/04/17 03:33:20;;;;;;;6.10;4.20;;;;;;;;;;107668;281;38826;-30
2023/04/17 03:35:54;;;;;;;5.70;4.10;;;;;;;;;;107630;276;39679;-30
2023/04/17 03:38:28;;;;;;;7.20;4.30;;;;;;;;;;107650;276;50354;-30
2023/04/17 03:41:03;;;;;;;5.60;3.90;;;;;;;;;;107629;284;42332;-30
2023/04/17 03:43:37;;;;;;;5.50;4.10;;;;;;;;;;107665;284;40005;-30
2023/04/17 03:46:11;;;;;;;6.30;4.10;;;;;;;;;;107611;284;40882;-30
2023/04/17 03:48:45;;;;;;;6.00;4.00;;;;;;;;;;107642;276;50533;-30
2023/04/17 03:51:20;;;;;;;6.00;4.70;;;;;;;;;;107641;284;43156;-30
2023/04/17 03:53:55;;;;;;;5.70;4.10;;;;;;;;;;107661;284;39858;-30
2023/04/17 03:56:32;;;;;;;6.10;4.50;;;;;;;;;;107649;281;39730;-30
2023/04/17 03:59:09;;;;;;;6.70;4.20;;;;;;;;;;107710;284;50555;-30
2023/04/17 04:01:45;;;;;;;5.90;4.50;;;;;;;;;;107748;276;42010;-30
2023/04/17 04:04:21;;;;;;;6.10;4.00;;;;;;;;;;107715;284;38773;-30
2023/04/17 04:07:00;;;;;;;6.20;4.20;;;;;;;;;;107681;284;39752;-29
2023/04/17 04:09:34;;;;;;;6.00;4.00;;;;;;;;;;107739;276;42889;-29
2023/04/17 04:12:08;;;;;;;5.80;4.00;;;;;;;;;;107706;276;42303;-29
2023/04/17 04:14:42;;;;;;;5.00;4.00;;;;;;;;;;107714;281;38947;-29
2023/04/17 04:17:16;;;;;;;5.90;4.30;;;;;;;;;;107648;284;39503;-29
2023/04/17 04:19:53;;;;;;;6.10;4.10;;;;;;;;;;107684;284;43336;-29
2023/04/17 04:22:29;;;;;;;5.60;4.00;;;;;;;;;;107577;288;175733;-30
2023/04/17 04:25:05;;;;;;;5.60;4.10;;;;;;;;;;107722;276;38531;-30
2023/04/17 04:27:48;;;;;;;5.50;4.00;;;;;;;;;;107665;276;39704;-30
2023/04/17 04:30:24;;;;;;;6.20;4.20;;;;;;;;;;107719;276;42670;-29
2023/04/17 04:32:59;;;;;;;6.10;4.10;;;;;;;;;;107697;276;42135;-29
2023/04/17 04:35:34;;;;;;;5.60;4.00;;;;;;;;;;107684;284;38815;-30
2023/04/17 04:38:12;;;;;;;5.50;4.20;;;;;;;;;;107670;276;39934;-30
2023/04/17 04:40:48;;;;;;;5.80;4.10;;;;;;;;;;107698;284;44060;-30
2023/04/17 04:43:27;;;;;;;5.90;4.20;;;;;;;;;;107715;284;42414;-30
2023/04/17 04:46:03;;;;;;;5.90;4.50;;;;;;;;;;107728;276;38917;-30
2023/04/17 04:48:37;;;;;;;5.30;4.00;;;;;;;;;;107692;284;39737;-30
2023/04/17 04:51:14;;;;;;;5.20;3.90;;;;;;;;;;107708;284;42889;-30
2023/04/17 04:53:48;;;;;;;5.80;4.00;;;;;;;;;;107700;281;42197;-30
2023/04/17 04:56:22;;;;;;;5.70;4.00;;;;;;;;;;107712;286;39137;-30
2023/04/17 04:58:57;;;;;;;5.20;4.00;;;;;;;;;;107685;284;39723;-30
2023/04/17 05:01:31;;;;;;;5.90;4.30;;;;;;;;;;107693;284;44048;-30
2023/04/17 05:04:05;;;;;;;5.50;4.10;;;;;;;;;;107715;276;42211;-30
2023/04/17 05:06:41;;;;;;;6.00;4.20;;;;;;;;;;107702;284;38805;-30
2023/04/17 05:09:16;;;;;;;5.50;4.30;;;;;;;;;;107652;284;40903;-30
2023/04/17 05:11:52;;;;;;;5.70;4.30;;;;;;;;;;107693;284;43002;-30
2023/04/17 05:14:27;;;;;;;5.80;4.00;;;;;;;;;;107663;284;42252;-30
2023/04/17 05:17:02;;;;;;;5.90;4.20;;;;;;;;;;107008;276;895215;-30
2023/04/17 05:19:37;;;;;;;5.70;4.10;;;;;;;;;;107648;284;39921;-30
2023/04/17 05:22:13;;;;;;;5.50;4.20;;;;;;;;;;107583;276;175733;-30
2023/04/17 05:24:47;;;;;;;5.40;3.90;;;;;;;;;;107665;276;43257;-30
2023/04/17 05:27:25;;;;;;;5.30;4.10;;;;;;;;;;107523;284;175741;-29
2023/04/17 05:29:59;;;;;;;6.20;4.20;;;;;;;;;;107636;281;39652;-29
2023/04/17 05:32:34;;;;;;;5.60;4.10;;;;;;;;;;107658;276;44002;-29
2023/04/17 05:35:10;;;;;;;5.30;3.90;;;;;;;;;;107683;284;43291;-30
2023/04/17 05:37:46;;;;;;;5.70;4.10;;;;;;;;;;107695;276;38831;-30
2023/04/17 05:40:20;;;;;;;5.50;4.20;;;;;;;;;;107630;276;39854;-30
2023/04/17 05:42:55;;;;;;;6.10;4.20;;;;;;;;;;107696;284;44537;-30
2023/04/17 05:45:31;;;;;;;5.50;4.00;;;;;;;;;;107686;284;42156;-30
2023/04/17 05:48:06;;;;;;;5.50;4.20;;;;;;;;;;107594;276;175691;-30
2023/04/17 05:50:42;;;;;;;5.20;3.90;;;;;;;;;;107662;284;39454;-30
2023/04/17 05:53:19;;;;;;;5.70;4.00;;;;;;;;;;107688;284;42680;-30
2023/04/17 05:55:53;;;;;;;5.80;4.30;;;;;;;;;;107650;276;42487;-30
2023/04/17 05:58:27;;;;;;;6.10;4.50;;;;;;;;;;107692;281;38927;-30
2023/04/17 06:01:05;;;;;;;5.70;4.00;;;;;;;;;;107644;284;40023;-30
2023/04/17 06:03:41;;;;;;;6.10;4.30;;;;;;;;;;107547;284;175705;-30
2023/04/17 06:06:15;;;;;;;5.80;4.00;;;;;;;;;;107651;284;42443;-30
2023/04/17 06:08:51;;;;;;;5.60;4.40;;;;;;;;;;107675;281;38890;-30
2023/04/17 06:11:25;;;;;;;6.20;4.60;;;;;;;;;;107651;276;39871;-30
2023/04/17 06:14:01;;;;;;;6.40;4.50;;;;;;;;;;107661;281;43068;-30
2023/04/17 06:16:36;;;;;;;6.10;4.10;;;;;;;;;;107671;276;42287;-30
2023/04/17 06:19:11;;;;;;;6.50;4.40;;;;;;;;;;107699;284;38815;-30
2023/04/17 06:21:45;;;;;;;6.60;4.60;;;;;;;;;;106984;284;894964;-30
2023/04/17 06:24:22;;;;;;;6.80;4.50;;;;;;;;;;107677;276;43138;-30
2023/04/17 06:26:58;;;;;;;6.90;4.40;;;;;;;;;;107697;281;42306;-30
2023/04/17 06:29:32;;;;;;;6.20;4.50;;;;;;;;;;107696;281;38852;-30
2023/04/17 06:32:06;;;;;;;6.70;4.70;;;;;;;;;;107627;281;45353;-30
2023/04/17 06:34:43;;;;;;;9.00;4.70;;;;;;;;;;107689;276;42989;-30
2023/04/17 06:37:32;;;;;;;7.60;5.00;;;;;;;;;;107645;276;42338;-30
2023/04/17 06:40:08;;;;;;;6.20;4.80;;;;;;;;;;107641;284;38839;-30
2023/04/17 06:42:41;;;;;;;8.50;5.40;;;;;;;;;;107690;281;40803;-30
2023/04/17 06:45:16;;;;;;;7.50;5.80;;;;;;;;;;107652;284;45019;-30
2023/04/17 06:47:50;;;;;;;8.00;5.40;;;;;;;;;;107653;276;43627;-30
2023/04/17 06:50:29;;;;;;;8.70;5.80;;;;;;;;;;107595;281;39949;-30
2023/04/17 06:53:07;;;;;;;8.10;5.90;;;;;;;;;;107640;276;39873;-30
2023/04/17 06:55:42;;;;;;;7.70;5.50;;;;;;;;;;107661;281;42876;-29
2023/04/17 06:58:15;;;;;;;7.60;5.70;;;;;;;;;;107656;281;43371;-30
2023/04/17 07:00:51;;;;;;;7.60;5.50;;;;;;;;;;107648;284;38925;-30
2023/04/17 07:03:26;;;;;;;7.50;5.60;;;;;;;;;;107641;276;39461;-30
2023/04/17 07:06:01;;;;;;;8.10;5.90;;;;;;;;;;107641;276;44225;-30
2023/04/17 07:08:36;;;;;;;7.60;5.40;;;;;;;;;;107660;284;42324;-30
2023/04/17 07:11:12;;;;;;;7.60;5.20;;;;;;;;;;107631;276;38795;-30
2023/04/17 07:13:47;;;;;;;7.20;5.40;;;;;;;;;;107661;284;39770;-30
2023/04/17 07:16:23;;;;;;;8.60;5.80;;;;;;;;;;107677;281;42663;-30
2023/04/17 07:18:56;;;;;;;6.80;5.30;;;;;;;;;;107636;276;43326;-30
2023/04/17 07:21:31;;;;;;;8.30;5.70;;;;;;;;;;107569;276;38582;-32
2023/04/17 07:24:06;;;;;;;8.00;5.10;;;;;;;;;;107625;284;39914;-31
2023/04/17 07:26:42;;;;;;;8.10;5.50;;;;;;;;;;107635;276;44034;-31
2023/04/17 07:29:15;;;;;;;8.60;5.90;;;;;;;;;;107645;280;43279;-31
2023/04/17 07:31:50;;;;;;;9.30;6.00;;;;;;;;;;107596;284;38774;-31
2023/04/17 07:34:25;;;;;;;9.10;5.80;;;;;;;;;;107607;281;39772;-32
2023/04/17 07:37:00;;;;;;;8.50;5.70;;;;;;;;;;107652;284;44062;-32
2023/04/17 07:39:34;;;;;;;9.10;5.70;;;;;;;;;;107618;277;43297;-31
2023/04/17 07:42:07;;;;;;;8.50;5.80;;;;;;;;;;107594;281;39408;-31
2023/04/17 07:44:42;;;;;;;7.80;5.20;;;;;;;;;;107634;284;40051;-31
2023/04/17 07:47:17;;;;;;;8.90;5.80;;;;;;;;;;107679;276;43019;-31
2023/04/17 07:49:52;;;;;;;9.40;6.00;;;;;;;;;;107620;284;43273;-30
2023/04/17 07:52:26;;;;;;;8.70;5.70;;;;;;;;;;107586;284;38785;-31
2023/04/17 07:55:00;;;;;;;8.40;5.80;;;;;;;;;;107625;276;40057;-31
2023/04/17 07:57:33;;;;;;;8.60;5.80;;;;;;;;;;107645;285;43131;-31
2023/04/17 08:00:10;;;;;;;9.50;5.90;;;;;;;;;;107635;285;42233;-31
2023/04/17 08:02:44;;;;;;;7.30;5.50;;;;;;;;;;107585;277;38748;-31
2023/04/17 08:05:20;;;;;;;8.50;5.90;;;;;;;;;;107624;281;39978;-31
2023/04/17 08:07:54;;;;;;;9.10;5.80;;;;;;;;;;107623;282;42882;-29
2023/04/17 08:10:28;;;;;;;9.30;5.80;;;;;;;;;;107629;285;43256;-30
2023/04/17 08:13:03;;;;;;;9.40;5.90;;;;;;;;;;107649;282;38776;-30
2023/04/17 08:15:39;;;;;;;7.90;5.60;;;;;;;;;;107643;277;39697;-30
2023/04/17 08:18:13;;;;;;;8.40;5.60;;;;;;;;;;107628;277;42914;-31
2023/04/17 08:20:47;;;;;;;8.00;5.50;;;;;;;;;;107620;285;42180;-31
2023/04/17 08:23:21;;;;;;;9.60;5.80;;;;;;;;;;107584;282;38581;-31
2023/04/17 08:25:57;;;;;;;8.90;5.60;;;;;;;;;;107486;288;175250;-31
2023/04/17 08:28:34;;;;;;;9.00;6.40;;;;;;;;;;107646;277;44025;-31
2023/04/17 08:31:09;;;;;;;8.30;6.00;;;;;;;;;;107668;284;42445;-32
2023/04/17 08:33:43;;;;;;;9.10;5.90;;;;;;;;;;107650;276;38566;-32
2023/04/17 08:36:17;;;;;;;8.60;5.80;;;;;;;;;;107673;284;40765;-32
2023/04/17 08:38:51;;;;;;;8.70;5.80;;;;;;;;;;107691;284;42814;-31
2023/04/17 08:41:27;;;;;;;8.70;5.50;;;;;;;;;;107661;284;43250;-31
2023/04/17 08:44:04;;;;;;;8.50;5.60;;;;;;;;;;107667;284;38590;-31
2023/04/17 08:46:39;;;;;;;9.30;5.80;;;;;;;;;;107707;284;40878;-32
2023/04/17 08:49:13;;;;;;;8.50;5.60;;;;;;;;;;107768;281;44045;-30
2023/04/17 08:51:47;;;;;;;8.80;5.80;;;;;;;;;;107966;283;28131;-30
2023/04/17 08:54:21;;;;;;;8.10;5.50;;;;;;;;;;107750;284;27406;-31
2023/04/17 08:56:55;;;;;;;9.40;5.60;;;;;;;;;;107671;276;39680;-30
2023/04/17 08:59:32;;;;;;;9.00;6.00;;;;;;;;;;107613;284;43108;-30
2023/04/17 09:02:09;;;;;;;7.00;5.70;;;;;;;;;;107663;286;41866;-29
2023/04/17 09:04:45;;;;;;;7.90;5.50;;;;;;;;;;107608;282;38732;-30
2023/04/17 09:07:30;;;;;;;7.80;5.60;;;;;;;;;;107665;282;39877;-29
2023/04/17 09:10:05;;;;;;;8.50;5.40;;;;;;;;;;107652;284;43014;-30
2023/04/17 09:12:40;;;;;;;7.80;5.80;;;;;;;;;;107658;284;42183;-29
2023/04/17 09:15:27;;;;;;;7.60;5.40;;;;;;;;;;107486;285;175577;-29
2023/04/17 09:18:02;;;;;;;7.90;5.40;;;;;;;;;;107650;281;39707;-30
2023/04/17 09:20:51;;;;;;;7.10;5.30;;;;;;;;;;107638;277;43392;-30
2023/04/17 09:23:25;;;;;;;7.50;5.70;;;;;;;;;;107589;284;43170;-30
2023/04/17 09:26:11;;;;;;;8.80;5.80;;;;;;;;;;107652;277;39159;-30
2023/04/17 09:29:06;;;;;;;7.30;5.40;;;;;;;;;;107677;284;39478;-30
2023/04/17 09:31:43;;;;;;;6.60;5.20;;;;;;;;;;107697;285;44951;-30
2023/04/17 09:34:17;;;;;;;6.80;5.00;;;;;;;;;;107600;283;43435;-30
2023/04/17 09:36:58;;;;;;;7.20;5.20;;;;;;;;;;107620;283;38857;-30
2023/04/17 09:39:33;;;;;;;8.30;5.40;;;;;;;;;;107209;283;427833;-30
2023/04/17 09:42:09;;;;;;;7.90;5.50;;;;;;;;;;107564;285;43178;-30
2023/04/17 09:44:42;;;;;;;7.20;5.20;;;;;;;;;;107625;284;43291;-31
2023/04/17 09:47:18;;;;;;;7.30;5.20;;;;;;;;;;107625;284;39981;-31
2023/04/17 09:49:54;;;;;;;7.50;5.00;;;;;;;;;;107631;284;41480;-30
2023/04/17 09:52:29;;;;;;;7.20;5.10;;;;;;;;;;107640;284;44148;-30
2023/04/17 09:55:05;;;;;;;6.80;5.10;;;;;;;;;;107573;284;43257;-30
2023/04/17 09:57:43;;;;;;;7.30;5.10;;;;;;;;;;107640;284;39925;-30
2023/04/17 10:00:20;;;;;;;6.70;5.00;;;;;;;;;;107626;284;39891;-30
2023/04/17 10:02:56;;;;;;;6.80;5.00;;;;;;;;;;107610;277;43271;-30
2023/04/17 10:05:31;;;;;;;6.40;5.10;;;;;;;;;;107606;284;42948;-30
2023/04/17 10:08:06;;;;;;;7.40;5.10;;;;;;;;;;107643;284;38835;-30
2023/04/17 10:10:41;;;;;;;7.40;5.30;;;;;;;;;;107666;284;40716;-30
2023/04/17 10:13:16;;;;;;;7.10;5.50;;;;;;;;;;107612;284;42865;-30
2023/04/17 10:15:50;;;;;;;7.10;5.10;;;;;;;;;;107569;277;42165;-30
2023/04/17 10:18:27;;;;;;;6.40;4.80;;;;;;;;;;107631;285;38895;-31
2023/04/17 10:21:24;;;;;;;6.90;5.00;;;;;;;;;;107600;286;39721;-31
2023/04/17 10:24:00;;;;;;;6.70;5.20;;;;;;;;;;106961;283;894052;-31
2023/04/17 10:26:39;;;;;;;6.70;4.90;;;;;;;;;;107570;283;42163;-31
2023/04/17 10:29:15;;;;;;;6.40;5.20;;;;;;;;;;107651;277;38773;-30
2023/04/17 10:32:17;;;;;;;6.70;5.10;;;;;;;;;;107629;285;39739;-30
2023/04/17 10:34:51;;;;;;;6.50;5.20;;;;;;;;;;107584;277;42985;-29
2023/04/17 10:38:07;;;;;;;7.20;4.90;;;;;;;;;;107620;285;42233;-30
2023/04/17 10:40:44;;;;;;;6.30;4.90;;;;;;;;;;107621;285;39085;-30
2023/04/17 10:43:21;;;;;;;6.50;5.00;;;;;;;;;;107009;277;891778;-30
2023/04/17 10:46:14;;;;;;;6.60;4.90;;;;;;;;;;107635;285;42891;-30
2023/04/17 10:48:53;;;;;;;7.10;5.00;;;;;;;;;;107645;285;42168;-30
2023/04/17 10:51:44;;;;;;;6.90;4.70;;;;;;;;;;107608;285;40036;-30
2023/04/17 10:54:18;;;;;;;6.50;4.50;;;;;;;;;;107618;285;39889;-30
2023/04/17 10:56:57;;;;;;;6.20;4.70;;;;;;;;;;107573;285;42963;-30
2023/04/17 10:59:31;;;;;;;6.30;4.80;;;;;;;;;;107631;285;43615;-29
2023/04/17 11:02:06;;;;;;;6.00;4.70;;;;;;;;;;107639;282;39171;-29
2023/04/17 11:04:40;;;;;;;6.60;5.00;;;;;;;;;;107661;285;39711;-29
2023/04/17 11:07:16;;;;;;;6.70;4.90;;;;;;;;;;107611;283;43173;-29
2023/04/17 11:09:54;;;;;;;7.10;4.90;;;;;;;;;;107650;277;42090;-29
2023/04/17 11:12:32;;;;;;;6.10;4.80;;;;;;;;;;107630;285;39794;-29
2023/04/17 11:15:10;;;;;;;6.10;4.50;;;;;;;;;;107615;283;39697;-29
2023/04/17 11:17:49;;;;;;;6.50;4.70;;;;;;;;;;107712;283;49777;-30
2023/04/17 11:20:25;;;;;;;7.10;4.60;;;;;;;;;;107592;285;43290;-29
2023/04/17 11:23:02;;;;;;;6.60;4.50;;;;;;;;;;107616;277;39797;-29
2023/04/17 11:25:40;;;;;;;6.30;4.70;;;;;;;;;;107599;285;39946;-29
2023/04/17 11:28:14;;;;;;;6.10;4.70;;;;;;;;;;107599;285;49655;-29
2023/04/17 11:30:51;;;;;;;6.20;4.60;;;;;;;;;;107588;285;42486;-29
2023/04/17 11:33:26;;;;;;;6.00;4.80;;;;;;;;;;107634;282;38854;-29
2023/04/17 11:36:00;;;;;;;6.00;4.60;;;;;;;;;;107593;282;41048;-30
2023/04/17 11:38:35;;;;;;;6.50;4.60;;;;;;;;;;107614;282;49269;-30
2023/04/17 11:41:13;;;;;;;6.50;4.60;;;;;;;;;;107644;285;42269;-31
2023/04/17 11:43:47;;;;;;;5.90;4.30;;;;;;;;;;107609;286;38807;-30
2023/04/17 11:46:23;;;;;;;7.40;4.90;;;;;;;;;;107608;282;39501;-30
2023/04/17 11:49:00;;;;;;;6.50;4.70;;;;;;;;;;107593;285;42950;-29
2023/04/17 11:51:35;;;;;;;5.70;4.50;;;;;;;;;;107426;286;42346;-30
2023/04/17 11:54:11;;;;;;;6.60;4.90;;;;;;;;;;107630;285;38924;-32
2023/04/17 11:57:01;;;;;;;6.70;4.60;;;;;;;;;;107600;277;39813;-30
2023/04/17 11:59:37;;;;;;;6.40;4.70;;;;;;;;;;107540;285;175253;-31
2023/04/17 12:02:13;;;;;;;6.80;4.50;;;;;;;;;;107625;283;42446;-30
2023/04/17 12:04:49;;;;;;;6.40;4.20;;;;;;;;;;107606;283;39920;-30
2023/04/17 12:07:27;;;;;;;6.30;4.40;;;;;;;;;;107574;285;39917;-30
2023/04/17 12:10:02;;;;;;;5.70;4.50;;;;;;;;;;107616;285;43021;-30
2023/04/17 12:12:36;;;;;;;5.80;4.30;;;;;;;;;;107615;285;42270;-30
2023/04/17 12:15:11;;;;;;;6.60;4.60;;;;;;;;;;107598;285;39734;-30
2023/04/17 12:17:45;;;;;;;5.50;4.20;;;;;;;;;;107608;285;39923;-30
2023/04/17 12:20:19;;;;;;;6.50;4.30;;;;;;;;;;107610;282;44047;-30
2023/04/17 12:22:53;;;;;;;6.30;4.10;;;;;;;;;;107571;283;42286;-30
2023/04/17 12:25:27;;;;;;;5.40;4.10;;;;;;;;;;107601;285;38983;-30
2023/04/17 12:28:03;;;;;;;6.00;4.20;;;;;;;;;;107578;285;39715;-30
2023/04/17 12:30:38;;;;;;;6.00;4.10;;;;;;;;;;107585;285;43138;-30
2023/04/17 12:33:14;;;;;;;5.40;4.00;;;;;;;;;;107594;283;42174;-30
2023/04/17 12:35:49;;;;;;;5.60;4.10;;;;;;;;;;107602;285;38587;-30
2023/04/17 12:38:25;;;;;;;6.60;4.10;;;;;;;;;;107569;285;39809;-30
2023/04/17 12:41:00;;;;;;;7.10;4.20;;;;;;;;;;107617;283;43969;-30
2023/04/17 12:43:35;;;;;;;5.50;4.10;;;;;;;;;;107368;287;42115;-30
2023/04/17 12:46:09;;;;;;;5.30;4.00;;;;;;;;;;107586;285;38844;-30
2023/04/17 12:48:43;;;;;;;5.40;4.00;;;;;;;;;;107558;285;40793;-30
2023/04/17 12:51:17;;;;;;;5.90;3.90;;;;;;;;;;107575;283;43301;-31
2023/04/17 12:53:51;;;;;;;5.40;3.50;;;;;;;;;;107597;285;43192;-30
2023/04/17 12:56:26;;;;;;;5.60;4.10;;;;;;;;;;107607;283;39914;-30
2023/04/17 12:59:02;;;;;;;5.60;3.70;;;;;;;;;;107390;283;40945;-30
2023/04/17 13:01:38;;;;;;;5.40;3.80;;;;;;;;;;107574;285;43222;-30
2023/04/17 13:04:12;;;;;;;5.40;3.80;;;;;;;;;;107601;283;42220;-30
2023/04/17 13:06:47;;;;;;;6.10;4.00;;;;;;;;;;107488;283;175302;-31
2023/04/17 13:09:21;;;;;;;5.20;3.80;;;;;;;;;;107373;286;40896;-31
2023/04/17 13:11:57;;;;;;;5.60;4.00;;;;;;;;;;107596;283;45228;-31
2023/04/17 13:14:31;;;;;;;5.50;3.80;;;;;;;;;;107593;283;42168;-31
2023/04/17 13:17:05;;;;;;;5.90;3.80;;;;;;;;;;107577;285;39856;-30
2023/04/17 13:19:39;;;;;;;5.40;3.60;;;;;;;;;;107489;277;39692;-30
2023/04/17 13:22:14;;;;;;;5.40;3.80;;;;;;;;;;107604;283;42871;-30
2023/04/17 13:24:50;;;;;;;5.80;3.70;;;;;;;;;;107579;285;42269;-29
2023/04/17 13:27:24;;;;;;;4.90;3.40;;;;;;;;;;107593;285;39833;-31
2023/04/17 13:29:58;;;;;;;4.90;3.40;;;;;;;;;;107557;285;40939;-30
2023/04/17 13:32:33;;;;;;;5.30;3.70;;;;;;;;;;107672;290;42937;-30
2023/04/17 13:35:12;;;;;;;5.30;3.50;;;;;;;;;;107422;287;43939;-30
2023/04/17 13:37:46;;;;;;;5.30;3.30;;;;;;;;;;107562;277;39002;-30
2023/04/17 13:40:20;;;;;;;5.20;3.60;;;;;;;;;;107551;283;40215;-30
2023/04/17 13:42:54;;;;;;;5.10;3.40;;;;;;;;;;107639;285;43045;-30
2023/04/17 13:45:30;;;;;;;5.10;3.50;;;;;;;;;;107593;285;42494;-30
2023/04/17 13:48:03;;;;;;;5.60;3.50;;;;;;;;;;107587;282;41097;-31
2023/04/17 13:50:37;;;;;;;4.90;3.40;;;;;;;;;;107559;282;39810;-30
2023/04/17 13:53:12;;;;;;;5.10;3.40;;;;;;;;;;107570;285;42909;-30
2023/04/17 13:55:49;;;;;;;5.30;3.10;;;;;;;;;;107597;286;42166;-31
2023/04/17 13:58:23;;;;;;;5.30;3.70;;;;;;;;;;107595;285;38815;-30
2023/04/17 14:00:57;;;;;;;5.60;3.50;;;;;;;;;;107571;283;40928;-30
2023/04/17 14:03:31;;;;;;;4.80;3.20;;;;;;;;;;107590;283;42896;-30
2023/04/17 14:06:07;;;;;;;5.20;3.30;;;;;;;;;;107591;285;43629;-30
2023/04/17 14:08:43;;;;;;;6.50;3.60;;;;;;;;;;107627;282;38999;-30
2023/04/17 14:11:19;;;;;;;5.20;3.40;;;;;;;;;;107473;283;175643;-30
2023/04/17 14:13:53;;;;;;;4.70;3.10;;;;;;;;;;107603;285;42887;-30
2023/04/17 14:16:27;;;;;;;4.80;3.00;;;;;;;;;;107615;285;43734;-30
2023/04/17 14:19:01;;;;;;;4.90;2.90;;;;;;;;;;107577;285;39860;-30
2023/04/17 14:21:47;;;;;;;5.00;3.10;;;;;;;;;;107566;283;45599;-30
2023/04/17 14:24:21;;;;;;;5.00;3.30;;;;;;;;;;107603;285;44044;-30
2023/04/17 14:26:55;;;;;;;5.00;3.20;;;;;;;;;;107618;285;41885;-30
2023/04/17 14:29:29;;;;;;;4.80;3.20;;;;;;;;;;107589;285;39949;-30
2023/04/17 14:32:03;;;;;;;4.80;3.20;;;;;;;;;;107600;285;46545;-30
2023/04/17 14:34:36;;;;;;;4.90;3.40;;;;;;;;;;107613;285;44029;-30
2023/04/17 14:37:10;;;;;;;5.20;3.40;;;;;;;;;;107623;285;42272;-30
2023/04/17 14:39:44;;;;;;;5.30;3.20;;;;;;;;;;107597;285;38829;-30
2023/04/17 14:42:18;;;;;;;5.80;3.40;;;;;;;;;;107643;285;46855;-30
2023/04/17 14:44:51;;;;;;;5.30;3.00;;;;;;;;;;107514;277;175667;-30
2023/04/17 14:47:24;;;;;;;4.60;3.10;;;;;;;;;;107628;285;42149;-30
2023/04/17 14:50:01;;;;;;;5.00;3.00;;;;;;;;;;107612;285;38766;-30
2023/04/17 14:52:35;;;;;;;5.60;3.20;;;;;;;;;;107593;285;46532;-30
2023/04/17 14:55:12;;;;;;;4.90;2.90;;;;;;;;;;107600;281;42968;-30
2023/04/17 14:57:45;;;;;;;4.50;2.90;;;;;;;;;;107625;285;42223;-30
2023/04/17 15:00:21;;;;;;;4.60;3.10;;;;;;;;;;107607;285;38811;-30
2023/04/17 15:02:54;;;;;;;4.70;3.30;;;;;;;;;;107716;285;46626;-30
2023/04/17 15:05:28;;;;;;;4.40;2.90;;;;;;;;;;107498;283;175675;-30
2023/04/17 15:08:02;;;;;;;4.70;3.10;;;;;;;;;;107629;283;42393;-30
2023/04/17 15:10:36;;;;;;;4.70;2.80;;;;;;;;;;107614;282;38877;-30
2023/04/17 15:13:25;;;;;;;5.00;3.10;;;;;;;;;;107630;285;45483;-30
2023/04/17 15:15:58;;;;;;;5.00;3.00;;;;;;;;;;107620;285;44942;-30
2023/04/17 15:18:33;;;;;;;4.80;2.90;;;;;;;;;;107518;285;175688;-30
2023/04/17 15:21:07;;;;;;;4.60;2.90;;;;;;;;;;107592;285;38758;-30
2023/04/17 15:23:41;;;;;;;4.70;3.00;;;;;;;;;;107528;285;46078;-30
2023/04/17 15:26:15;;;;;;;4.80;3.00;;;;;;;;;;107611;285;43963;-30
2023/04/17 15:28:48;;;;;;;5.50;2.90;;;;;;;;;;107599;285;42164;-30
2023/04/17 15:31:22;;;;;;;4.60;3.00;;;;;;;;;;107625;285;38797;-30
2023/04/17 15:33:56;;;;;;;4.70;2.90;;;;;;;;;;107559;285;44579;-30